createdAt,value
2023-03-17T00:00:15.169Z,7.03
2023-03-17T00:05:23.895Z,7.57
2023-03-17T00:10:27.710Z,6.97
2023-03-17T00:15:32.886Z,6.63
2023-03-17T00:20:36.234Z,6.47
2023-03-17T00:25:43.214Z,6.40
2023-03-17T00:30:52.158Z,5.68
2023-03-17T00:35:56.149Z,6.38
2023-03-17T00:40:59.501Z,6.25
2023-03-17T00:46:11.116Z,5.78
2023-03-17T00:51:15.655Z,6.20
2023-03-17T00:56:21.516Z,6.70
2023-03-17T01:01:26.941Z,7.18
2023-03-17T01:06:30.252Z,6.50
2023-03-17T01:11:34.142Z,7.22
2023-03-17T01:16:39.776Z,8.00
2023-03-17T01:21:43.794Z,6.30
2023-03-17T01:26:47.487Z,8.45
2023-03-17T01:31:53.166Z,6.63
2023-03-17T01:36:57.057Z,6.70
2023-03-17T01:42:01.511Z,6.88
2023-03-17T01:47:07.243Z,7.35
2023-03-17T01:52:14.384Z,7.57
2023-03-17T01:57:21.500Z,7.95
2023-03-17T02:02:32.073Z,7.10
2023-03-17T02:07:35.597Z,7.22
2023-03-17T02:12:42.402Z,6.50
2023-03-17T02:17:47.672Z,6.43
2023-03-17T02:22:55.164Z,8.18
2023-03-17T02:28:02.913Z,7.47
2023-03-17T02:33:06.708Z,6.10
2023-03-17T02:38:11.835Z,7.63
2023-03-17T02:43:15.321Z,6.65
2023-03-17T02:48:19.126Z,6.57
2023-03-17T02:53:23.980Z,6.22
2023-03-17T02:58:27.384Z,7.53
2023-03-17T03:03:31.412Z,6.53
2023-03-17T03:08:36.580Z,7.05
2023-03-17T03:13:40.122Z,6.88
2023-03-17T03:18:43.498Z,6.18
2023-03-17T03:23:48.292Z,5.63
2023-03-17T03:28:52.214Z,5.70
2023-03-17T03:33:58.644Z,5.60
2023-03-17T03:39:03.458Z,5.22
2023-03-17T03:44:07.198Z,5.38
2023-03-17T03:49:32.445Z,4.70
2023-03-17T03:54:37.576Z,5.38
2023-03-17T03:59:43.076Z,5.38
2023-03-17T04:04:47.096Z,4.95
2023-03-17T04:09:51.971Z,5.45
2023-03-17T04:14:55.508Z,5.45
2023-03-17T04:19:58.833Z,5.47
2023-03-17T04:25:03.602Z,4.20
2023-03-17T04:30:08.208Z,4.63
2023-03-17T04:35:15.260Z,4.60
2023-03-17T04:40:20.808Z,4.07
2023-03-17T04:45:24.647Z,4.28
2023-03-17T04:50:28.153Z,5.35
2023-03-17T04:55:33.198Z,3.65
2023-03-17T05:00:38.946Z,3.70
2023-03-17T05:05:42.316Z,3.83
2023-03-17T05:10:47.201Z,3.60
2023-03-17T05:15:51.647Z,3.80
2023-03-17T05:20:55.676Z,3.13
2023-03-17T05:26:00.867Z,3.28
2023-03-17T05:31:04.348Z,2.75
2023-03-17T05:36:08.719Z,3.13
2023-03-17T05:41:13.702Z,2.80
2023-03-17T05:46:19.794Z,2.97
2023-03-17T05:51:24.060Z,2.85
2023-03-17T05:56:33.707Z,3.10
2023-03-17T06:01:37.892Z,2.88
2023-03-17T06:06:41.412Z,2.55
2023-03-17T06:11:46.394Z,2.40
2023-03-17T06:16:49.692Z,2.78
2023-03-17T06:21:53.637Z,2.83
2023-03-17T06:26:58.477Z,2.20
2023-03-17T06:32:18.778Z,2.20
2023-03-17T06:37:24.933Z,2.33
2023-03-17T06:42:29.825Z,4.75
2023-03-17T06:47:34.252Z,5.10
2023-03-17T06:52:37.898Z,2.92
2023-03-17T06:57:42.740Z,2.08
2023-03-17T07:02:46.256Z,2.30
2023-03-17T07:07:49.708Z,1.70
2023-03-17T07:12:55.125Z,2.13
2023-03-17T07:17:58.657Z,2.22
2023-03-17T07:23:02.643Z,2.33
2023-03-17T07:28:07.520Z,2.33
2023-03-17T07:33:11.509Z,2.50
2023-03-17T07:38:15.273Z,2.42
2023-03-17T07:43:20.255Z,2.42
2023-03-17T07:48:24.293Z,2.83
2023-03-17T07:53:27.862Z,2.85
2023-03-17T07:58:32.706Z,3.00
2023-03-17T08:03:38.696Z,2.45
2023-03-17T08:08:44.025Z,2.53
2023-03-17T08:13:49.068Z,2.25
2023-03-17T08:18:52.427Z,2.00
2023-03-17T08:23:56.266Z,2.20
2023-03-17T08:29:01.420Z,2.60
2023-03-17T08:34:05.055Z,2.30
2023-03-17T08:39:10.612Z,2.30
2023-03-17T08:44:16.726Z,2.13
2023-03-17T08:49:20.095Z,2.40
2023-03-17T08:54:23.501Z,1.80
2023-03-17T08:59:28.708Z,1.95
2023-03-17T09:04:32.679Z,1.98
2023-03-17T09:09:36.642Z,2.20
2023-03-17T09:14:44.206Z,2.22
2023-03-17T09:19:48.227Z,2.22
2023-03-17T09:24:51.550Z,1.92
2023-03-17T09:29:56.647Z,2.15
2023-03-17T09:35:00.123Z,2.53
2023-03-17T09:40:08.229Z,2.13
2023-03-17T09:45:27.869Z,2.00
2023-03-17T09:50:39.306Z,1.75
2023-03-17T09:55:42.880Z,1.88
2023-03-17T10:00:48.204Z,1.50
2023-03-17T10:05:52.120Z,1.40
2023-03-17T10:11:01.493Z,2.00
2023-03-17T10:16:10.767Z,1.50
2023-03-17T10:21:19.297Z,1.58
2023-03-17T10:26:31.274Z,1.60
2023-03-17T10:31:38.160Z,1.27
2023-03-17T10:36:44.559Z,1.33
2023-03-17T10:41:57.096Z,1.58
2023-03-17T10:47:02.033Z,1.85
2023-03-17T10:52:09.203Z,2.10
2023-03-17T10:57:15.530Z,1.80
2023-03-17T11:02:26.986Z,2.25
2023-03-17T11:12:41.205Z,1.80
2023-03-17T11:17:53.796Z,1.88
2023-03-17T11:23:04.985Z,1.80
2023-03-17T11:28:20.956Z,2.10
2023-03-17T11:33:36.728Z,2.00
2023-03-17T11:38:45.699Z,1.70
2023-03-17T11:44:02.430Z,1.45
2023-03-17T11:49:13.220Z,1.58
2023-03-17T11:54:25.318Z,1.40
2023-03-17T11:59:36.827Z,1.50
2023-03-17T12:04:54.590Z,1.98
2023-03-17T12:10:05.791Z,1.80
2023-03-17T12:15:16.005Z,1.50
2023-03-17T12:20:26.456Z,1.75
2023-03-17T12:25:34.107Z,2.28
2023-03-17T12:30:47.668Z,2.10
2023-03-17T12:35:52.930Z,1.60
2023-03-17T12:41:22.049Z,1.60
2023-03-17T12:46:58.486Z,1.95
2023-03-17T12:52:22.956Z,1.70
2023-03-17T12:57:31.108Z,2.05
2023-03-17T13:02:38.616Z,1.63
2023-03-17T13:07:50.259Z,2.40
2023-03-17T13:13:08.990Z,1.63
2023-03-17T13:18:28.304Z,2.00
2023-03-17T13:23:38.808Z,1.95
2023-03-17T13:28:45.580Z,2.10
2023-03-17T13:33:53.349Z,1.90
2023-03-17T13:39:24.964Z,1.90
2023-03-17T13:44:45.530Z,2.00
2023-03-17T13:49:50.772Z,1.65
2023-03-17T13:55:07.241Z,2.10
2023-03-17T14:00:24.537Z,2.22
2023-03-17T14:05:31.295Z,3.13
2023-03-17T14:10:37.396Z,1.88
2023-03-17T14:15:48.241Z,1.75
2023-03-17T14:20:55.623Z,2.10
2023-03-17T14:26:01.446Z,1.90
2023-03-17T14:31:08.227Z,2.17
2023-03-17T14:36:14.678Z,2.08
2023-03-17T14:41:21.346Z,1.80
2023-03-17T14:46:26.646Z,2.45
2023-03-17T14:51:33.436Z,2.28
2023-03-17T14:56:40.279Z,2.30
2023-03-17T15:01:45.768Z,1.80
2023-03-17T15:06:51.339Z,1.95
2023-03-17T15:12:01.350Z,2.80
2023-03-17T15:17:06.846Z,5.43
2023-03-17T15:22:25.262Z,3.42
2023-03-17T15:27:30.909Z,2.67
2023-03-17T15:32:34.341Z,2.45
2023-03-17T15:37:37.813Z,4.03
2023-03-17T15:42:43.464Z,3.50
2023-03-17T15:47:48.297Z,3.60
2023-03-17T15:52:53.881Z,4.15
2023-03-17T15:57:59.166Z,3.85
2023-03-17T16:03:09.071Z,4.20
2023-03-17T16:08:14.826Z,3.13
2023-03-17T16:13:20.014Z,3.10
2023-03-17T16:18:30.967Z,3.38
2023-03-17T16:23:37.457Z,4.93
2023-03-17T16:28:42.446Z,5.05
2023-03-17T16:33:45.970Z,5.35
2023-03-17T16:38:52.178Z,4.68
2023-03-17T16:44:01.940Z,4.18
2023-03-17T16:49:05.890Z,3.85
2023-03-17T16:54:09.910Z,3.78
2023-03-17T16:59:21.308Z,3.38
2023-03-17T17:04:25.480Z,3.03
2023-03-17T17:09:29.083Z,2.70
2023-03-17T17:14:34.101Z,2.70
2023-03-17T17:19:37.724Z,3.05
2023-03-17T17:24:41.318Z,3.20
2023-03-17T17:29:46.407Z,3.13
2023-03-17T17:34:49.837Z,3.33
2023-03-17T17:39:53.589Z,4.68
2023-03-17T17:44:58.750Z,4.45
2023-03-17T17:50:02.446Z,4.95
2023-03-17T17:55:07.631Z,5.80
2023-03-17T18:00:16.996Z,6.07
2023-03-17T18:05:20.735Z,5.90
2023-03-17T18:10:26.159Z,5.55
2023-03-17T18:15:31.100Z,6.20
2023-03-17T18:20:35.195Z,4.60
2023-03-17T18:25:38.564Z,3.85
2023-03-17T18:30:45.866Z,5.38
2023-03-17T18:35:52.343Z,5.75
2023-03-17T18:40:56.018Z,4.28
2023-03-17T18:46:01.068Z,4.57
2023-03-17T18:51:04.482Z,4.05
2023-03-17T18:56:08.578Z,4.28
2023-03-17T19:01:13.511Z,4.13
2023-03-17T19:06:19.011Z,5.53
2023-03-17T19:11:22.570Z,4.57
2023-03-17T19:16:29.178Z,4.28
2023-03-17T19:21:33.511Z,4.75
2023-03-17T19:26:37.571Z,4.45
2023-03-17T19:31:48.383Z,4.82
2023-03-17T19:36:52.796Z,4.68
2023-03-17T19:41:58.000Z,3.92
2023-03-17T19:47:05.208Z,3.15
2023-03-17T19:52:09.703Z,4.53
2023-03-17T19:57:13.757Z,4.07
2023-03-17T20:02:18.601Z,4.05
2023-03-17T20:07:22.035Z,3.88
2023-03-17T20:12:26.524Z,3.67
2023-03-17T20:17:31.569Z,3.15
2023-03-17T20:22:35.171Z,2.67
2023-03-17T20:27:39.037Z,2.97
2023-03-17T20:32:44.363Z,3.22
2023-03-17T20:37:47.942Z,2.60
2023-03-17T20:42:52.051Z,2.45
2023-03-17T20:47:57.281Z,2.22
2023-03-17T20:53:01.825Z,2.72
2023-03-17T20:58:05.387Z,2.15
2023-03-17T21:03:10.160Z,2.88
2023-03-17T21:08:13.889Z,2.30
2023-03-17T21:13:18.083Z,2.10
2023-03-17T21:18:23.127Z,3.05
2023-03-17T21:23:27.226Z,2.30
2023-03-17T21:28:31.334Z,2.20
2023-03-17T21:33:36.558Z,2.20
2023-03-17T21:38:40.094Z,2.40
2023-03-17T21:43:43.566Z,2.38
2023-03-17T21:48:48.710Z,2.47
2023-03-17T21:53:53.066Z,2.45
2023-03-17T21:58:57.957Z,2.72
2023-03-17T22:04:02.680Z,2.58
2023-03-17T22:09:06.603Z,4.13
2023-03-17T22:14:10.067Z,2.95
2023-03-17T22:19:15.247Z,3.17
2023-03-17T22:24:18.829Z,2.75
2023-03-17T22:29:22.212Z,3.10
2023-03-17T22:34:27.652Z,3.10
2023-03-17T22:39:31.241Z,2.80
2023-03-17T22:44:34.594Z,3.10
2023-03-17T22:49:39.307Z,2.92
2023-03-17T22:54:42.826Z,3.20
2023-03-17T22:59:46.546Z,3.20
2023-03-17T23:04:51.257Z,3.28
2023-03-17T23:09:54.790Z,3.50
2023-03-17T23:14:58.504Z,3.10
2023-03-17T23:20:04.468Z,2.67
2023-03-17T23:25:08.700Z,2.85
2023-03-17T23:30:13.678Z,2.90
2023-03-17T23:35:19.599Z,3.00
2023-03-17T23:40:23.831Z,3.45
2023-03-17T23:45:28.158Z,3.40
2023-03-17T23:50:33.217Z,3.40
2023-03-17T23:55:37.440Z,3.10
